Guadalupe — WDG4275 — position and weather

sailwx.info

Track history (hours):
 
Tides and Currents Weather Stations Pressure Air Temp Water Temp Dewpoint Dewpoint Depression Visibility Wind Speed Wind Dir Waves Ship Positions

Guadalupe

Owner: Kirby Inland Marine, LP, Houston, TX. More information available from US FCC via Universal Licensing System and Coast Guard Vessel Documentation Center.

Last reported at 2017-Sep-24 12:50 UTC. Time now 2017-Sep-24 19:36 UTC.
Position N 29°45' W 095°06'.

Length 27 m; draft 3 m.

Type: . MMSI: 367534840.

Date/timePositionNaut miles runAvg speedWind from/ knotsBaromVisibWave heightAir tempDewpointWater temp
2017-Sep-24 12:50N 29°45' W 095°06'1 1.5
2017-Sep-24 12:30N 29°46' W 095°05'1 0.9
2017-Sep-24 11:56N 29°45' W 095°06'0 0.0
2017-Sep-24 10:45N 29°45' W 095°06'0 0.0
2017-Sep-24 10:27N 29°45' W 095°06'0 0.0
2017-Sep-24 09:55N 29°45' W 095°06'0 0.0
2017-Sep-24 09:27N 29°45' W 095°06'0 0.0
2017-Sep-24 08:58N 29°45' W 095°06'0 0.0
2017-Sep-24 08:31N 29°45' W 095°06'0 0.0
2017-Sep-24 07:58N 29°45' W 095°06'0 0.1
2017-Sep-24 07:13N 29°45' W 095°06'0 0.9
2017-Sep-24 06:58N 29°46' W 095°06'0 0.1
2017-Sep-24 06:27N 29°46' W 095°05'0 0.2
2017-Sep-24 05:47N 29°45' W 095°06'0 0.0
2017-Sep-24 05:29N 29°45' W 095°06'0 0.0
2017-Sep-24 04:56N 29°45' W 095°06'0 0.0
2017-Sep-24 04:14N 29°45' W 095°06'0 0.0
2017-Sep-24 03:56N 29°45' W 095°06'0 0.0
2017-Sep-24 03:26N 29°45' W 095°06'0 0.2
2017-Sep-24 02:59N 29°46' W 095°06'1 1.6
2017-Sep-24 02:27N 29°46' W 095°05'0 0.4
2017-Sep-24 02:00N 29°46' W 095°05'8 0.2
2017-Sep-21 22:56N 29°44' W 095°13'2 3.5
2017-Sep-21 22:29N 29°44' W 095°12'3 5.4
2017-Sep-21 22:00N 29°44' W 095°09'3 5.7
2017-Sep-21 21:26N 29°45' W 095°06'0 0.2
2017-Sep-21 20:32N 29°46' W 095°06'0 1.3
2017-Sep-21 20:21N 29°46' W 095°05'0 0.0
2017-Sep-21 15:15N 29°46' W 095°06'0 0.0
2017-Sep-21 09:27N 29°46' W 095°05'0 0.1
2017-Sep-21 04:33N 29°46' W 095°06'0 2.1
2017-Sep-21 04:20N 29°45' W 095°06'2 4.9
2017-Sep-21 03:51N 29°44' W 095°08'2 5.6
2017-Sep-21 03:28N 29°45' W 095°10'3 5.8
2017-Sep-21 02:58N 29°44' W 095°13'1 0.0
2017-Sep-19 23:05N 29°43' W 095°14'1 2.3
2017-Sep-19 22:44N 29°44' W 095°13'3 3.4
2017-Sep-19 21:57N 29°45' W 095°11'2 3.6
2017-Sep-19 21:28N 29°44' W 095°09'2 3.4
2017-Sep-19 20:56N 29°44' W 095°07'2 3.1
2017-Sep-19 20:27N 29°45' W 095°06'0 1.0
2017-Sep-19 19:59N 29°46' W 095°05'0 0.1
2017-Sep-19 18:32N 29°46' W 095°05'0 5.1
2017-Sep-19 18:30N 29°46' W 095°05'1 1.7
2017-Sep-19 17:50N 29°45' W 095°06'0 0.0
2017-Sep-19 16:40N 29°45' W 095°06'1 3.9
2017-Sep-19 16:29N 29°45' W 095°06'0 0.3
2017-Sep-19 15:28N 29°45' W 095°06'0 0.2
2017-Sep-19 14:01N 29°45' W 095°06'0 0.0
2017-Sep-19 13:54N 29°45' W 095°06'0 0.0
2017-Sep-19 13:24N 29°45' W 095°06'0 0.0
2017-Sep-19 12:00N 29°45' W 095°06'0 0.0
2017-Sep-19 03:10N 29°45' W 095°06'0 0.0
2017-Sep-18 23:51N 29°45' W 095°06'0 0.0
2017-Sep-18 23:29N 29°45' W 095°06'0 0.0
2017-Sep-18 22:45N 29°45' W 095°06'0 0.0
2017-Sep-18 22:29N 29°45' W 095°06'0 0.0
2017-Sep-18 22:00N 29°45' W 095°06'0 0.0
2017-Sep-18 21:30N 29°45' W 095°06'0 0.0
2017-Sep-18 21:00N 29°45' W 095°06'0 0.0
2017-Sep-18 20:06N 29°45' W 095°06'0 0.1
2017-Sep-18 20:00N 29°45' W 095°06'0 0.0
2017-Sep-18 19:30N 29°45' W 095°06'0 0.0
2017-Sep-18 18:49N 29°45' W 095°06'0 0.0
2017-Sep-18 14:36N 29°45' W 095°06'0 0.0
2017-Sep-18 06:42N 29°45' W 095°06'0 0.7
2017-Sep-18 06:30N 29°45' W 095°06'0 0.3
2017-Sep-18 06:00N 29°45' W 095°06'1 1.4
2017-Sep-18 05:12N 29°46' W 095°05'1 4.9
2017-Sep-18 05:00N 29°46' W 095°04'3 5.7
2017-Sep-18 04:29N 29°44' W 095°02'2 5.1
2017-Sep-18 04:00N 29°42' W 094°60'3 5.7
2017-Sep-18 03:30N 29°39' W 094°58'3 6.6
2017-Sep-18 03:00N 29°36' W 094°57'3 6.8
2017-Sep-18 02:30N 29°33' W 094°55'13 0.3
2017-Sep-16 06:37N 29°26' W 094°43'8 0.5
2017-Sep-15 14:12N 29°29' W 094°51'1 5.4
2017-Sep-15 14:00N 29°30' W 094°52'3 5.3
2017-Sep-15 13:30N 29°32' W 094°54'2 4.9
2017-Sep-15 13:00N 29°34' W 094°55'2 4.9
2017-Sep-15 12:30N 29°36' W 094°57'3 5.2
2017-Sep-15 12:00N 29°38' W 094°58'3 5.4
2017-Sep-15 11:30N 29°41' W 094°59'3 5.1
2017-Sep-15 11:00N 29°42' W 095°01'2 4.5
2017-Sep-15 10:30N 29°44' W 095°03'3 5.0
2017-Sep-15 10:00N 29°46' W 095°05'3 4.6
2017-Sep-15 09:28N 29°44' W 095°07'2 4.0
2017-Sep-15 09:00N 29°44' W 095°09'2 4.2
2017-Sep-15 08:29N 29°44' W 095°12'2 2.7
2017-Sep-15 07:52N 29°44' W 095°14'0 0.0
2017-Sep-15 07:30N 29°44' W 095°14'0 0.1
2017-Sep-15 07:00N 29°44' W 095°14'0 0.0
2017-Sep-15 06:24N 29°44' W 095°14'0 0.0
2017-Sep-15 06:00N 29°44' W 095°14'0 0.0
2017-Sep-15 05:28N 29°44' W 095°14'0 0.0
2017-Sep-15 04:58N 29°44' W 095°14'0 0.0
2017-Sep-15 04:25N 29°44' W 095°14'0 0.0
2017-Sep-15 03:57N 29°44' W 095°14'0 0.0
2017-Sep-15 03:26N 29°44' W 095°14'0 0.0
2017-Sep-15 02:59N 29°44' W 095°14'0 0.0
2017-Sep-15 02:28N 29°44' W 095°14'0 0.0
2017-Sep-15 01:57N 29°44' W 095°14'0 0.0
2017-Sep-15 01:19N 29°44' W 095°14'0 0.0
2017-Sep-15 00:56N 29°44' W 095°14'0 0.0
2017-Sep-15 00:27N 29°44' W 095°14'0 0.0
2017-Sep-15 00:00N 29°44' W 095°14'0 0.0
2017-Sep-14 23:20N 29°44' W 095°14'0 0.0
2017-Sep-14 22:56N 29°44' W 095°14'0 0.0
2017-Sep-14 22:14N 29°44' W 095°14'0 0.0
2017-Sep-14 22:00N 29°44' W 095°14'0 0.0
2017-Sep-14 21:15N 29°44' W 095°14'0 0.0
2017-Sep-14 20:51N 29°44' W 095°14'0 0.0
2017-Sep-14 16:13N 29°44' W 095°14'0 0.0
2017-Sep-14 13:03N 29°44' W 095°14'  
Track history (hours):
 
Tides and Currents Weather Stations Pressure Air Temp Water Temp Dewpoint Dewpoint Depression Visibility Wind Speed Wind Dir Waves Ship Positions

Guadalupe

Owner: Kirby Inland Marine, LP, Houston, TX. More information available from US FCC via Universal Licensing System and Coast Guard Vessel Documentation Center.

Last reported at 2017-Sep-24 12:50 UTC. Time now 2017-Sep-24 19:36 UTC.
Position N 29°45' W 095°06'.

Length 27 m; draft 3 m.

Type: . MMSI: 367534840.

Date/timePositionNaut miles runAvg speedWind from/ knotsBaromVisibWave heightAir tempDewpointWater temp
2017-Sep-24 12:50N 29°45' W 095°06'1 1.5
2017-Sep-24 12:30N 29°46' W 095°05'1 0.9
2017-Sep-24 11:56N 29°45' W 095°06'0 0.0
2017-Sep-24 10:45N 29°45' W 095°06'0 0.0
2017-Sep-24 10:27N 29°45' W 095°06'0 0.0
2017-Sep-24 09:55N 29°45' W 095°06'0 0.0
2017-Sep-24 09:27N 29°45' W 095°06'0 0.0
2017-Sep-24 08:58N 29°45' W 095°06'0 0.0
2017-Sep-24 08:31N 29°45' W 095°06'0 0.0
2017-Sep-24 07:58N 29°45' W 095°06'0 0.1
2017-Sep-24 07:13N 29°45' W 095°06'0 0.9
2017-Sep-24 06:58N 29°46' W 095°06'0 0.1
2017-Sep-24 06:27N 29°46' W 095°05'0 0.2
2017-Sep-24 05:47N 29°45' W 095°06'0 0.0
2017-Sep-24 05:29N 29°45' W 095°06'0 0.0
2017-Sep-24 04:56N 29°45' W 095°06'0 0.0
2017-Sep-24 04:14N 29°45' W 095°06'0 0.0
2017-Sep-24 03:56N 29°45' W 095°06'0 0.0
2017-Sep-24 03:26N 29°45' W 095°06'0 0.2
2017-Sep-24 02:59N 29°46' W 095°06'1 1.6
2017-Sep-24 02:27N 29°46' W 095°05'0 0.4
2017-Sep-24 02:00N 29°46' W 095°05'8 0.2
2017-Sep-21 22:56N 29°44' W 095°13'2 3.5
2017-Sep-21 22:29N 29°44' W 095°12'3 5.4
2017-Sep-21 22:00N 29°44' W 095°09'3 5.7
2017-Sep-21 21:26N 29°45' W 095°06'0 0.2
2017-Sep-21 20:32N 29°46' W 095°06'0 1.3
2017-Sep-21 20:21N 29°46' W 095°05'0 0.0
2017-Sep-21 15:15N 29°46' W 095°06'0 0.0
2017-Sep-21 09:27N 29°46' W 095°05'0 0.1
2017-Sep-21 04:33N 29°46' W 095°06'0 2.1
2017-Sep-21 04:20N 29°45' W 095°06'2 4.9
2017-Sep-21 03:51N 29°44' W 095°08'2 5.6
2017-Sep-21 03:28N 29°45' W 095°10'3 5.8
2017-Sep-21 02:58N 29°44' W 095°13'1 0.0
2017-Sep-19 23:05N 29°43' W 095°14'1 2.3
2017-Sep-19 22:44N 29°44' W 095°13'3 3.4
2017-Sep-19 21:57N 29°45' W 095°11'2 3.6
2017-Sep-19 21:28N 29°44' W 095°09'2 3.4
2017-Sep-19 20:56N 29°44' W 095°07'2 3.1
2017-Sep-19 20:27N 29°45' W 095°06'0 1.0
2017-Sep-19 19:59N 29°46' W 095°05'0 0.1
2017-Sep-19 18:32N 29°46' W 095°05'0 5.1
2017-Sep-19 18:30N 29°46' W 095°05'1 1.7
2017-Sep-19 17:50N 29°45' W 095°06'0 0.0
2017-Sep-19 16:40N 29°45' W 095°06'1 3.9
2017-Sep-19 16:29N 29°45' W 095°06'0 0.3
2017-Sep-19 15:28N 29°45' W 095°06'0 0.2
2017-Sep-19 14:01N 29°45' W 095°06'0 0.0
2017-Sep-19 13:54N 29°45' W 095°06'0 0.0
2017-Sep-19 13:24N 29°45' W 095°06'0 0.0
2017-Sep-19 12:00N 29°45' W 095°06'0 0.0
2017-Sep-19 03:10N 29°45' W 095°06'0 0.0
2017-Sep-18 23:51N 29°45' W 095°06'0 0.0
2017-Sep-18 23:29N 29°45' W 095°06'0 0.0
2017-Sep-18 22:45N 29°45' W 095°06'0 0.0
2017-Sep-18 22:29N 29°45' W 095°06'0 0.0
2017-Sep-18 22:00N 29°45' W 095°06'0 0.0
2017-Sep-18 21:30N 29°45' W 095°06'0 0.0
2017-Sep-18 21:00N 29°45' W 095°06'0 0.0
2017-Sep-18 20:06N 29°45' W 095°06'0 0.1
2017-Sep-18 20:00N 29°45' W 095°06'0 0.0
2017-Sep-18 19:30N 29°45' W 095°06'0 0.0
2017-Sep-18 18:49N 29°45' W 095°06'0 0.0
2017-Sep-18 14:36N 29°45' W 095°06'0 0.0
2017-Sep-18 06:42N 29°45' W 095°06'0 0.7
2017-Sep-18 06:30N 29°45' W 095°06'0 0.3
2017-Sep-18 06:00N 29°45' W 095°06'1 1.4
2017-Sep-18 05:12N 29°46' W 095°05'1 4.9
2017-Sep-18 05:00N 29°46' W 095°04'3 5.7
2017-Sep-18 04:29N 29°44' W 095°02'2 5.1
2017-Sep-18 04:00N 29°42' W 094°60'3 5.7
2017-Sep-18 03:30N 29°39' W 094°58'3 6.6
2017-Sep-18 03:00N 29°36' W 094°57'3 6.8
2017-Sep-18 02:30N 29°33' W 094°55'13 0.3
2017-Sep-16 06:37N 29°26' W 094°43'8 0.5
2017-Sep-15 14:12N 29°29' W 094°51'1 5.4
2017-Sep-15 14:00N 29°30' W 094°52'3 5.3
2017-Sep-15 13:30N 29°32' W 094°54'2 4.9
2017-Sep-15 13:00N 29°34' W 094°55'2 4.9
2017-Sep-15 12:30N 29°36' W 094°57'3 5.2
2017-Sep-15 12:00N 29°38' W 094°58'3 5.4
2017-Sep-15 11:30N 29°41' W 094°59'3 5.1
2017-Sep-15 11:00N 29°42' W 095°01'2 4.5
2017-Sep-15 10:30N 29°44' W 095°03'3 5.0
2017-Sep-15 10:00N 29°46' W 095°05'3 4.6
2017-Sep-15 09:28N 29°44' W 095°07'2 4.0
2017-Sep-15 09:00N 29°44' W 095°09'2 4.2
2017-Sep-15 08:29N 29°44' W 095°12'2 2.7
2017-Sep-15 07:52N 29°44' W 095°14'0 0.0
2017-Sep-15 07:30N 29°44' W 095°14'0 0.1
2017-Sep-15 07:00N 29°44' W 095°14'0 0.0
2017-Sep-15 06:24N 29°44' W 095°14'0 0.0
2017-Sep-15 06:00N 29°44' W 095°14'0 0.0
2017-Sep-15 05:28N 29°44' W 095°14'0 0.0
2017-Sep-15 04:58N 29°44' W 095°14'0 0.0
2017-Sep-15 04:25N 29°44' W 095°14'0 0.0
2017-Sep-15 03:57N 29°44' W 095°14'0 0.0
2017-Sep-15 03:26N 29°44' W 095°14'0 0.0
2017-Sep-15 02:59N 29°44' W 095°14'0 0.0
2017-Sep-15 02:28N 29°44' W 095°14'0 0.0
2017-Sep-15 01:57N 29°44' W 095°14'0 0.0
2017-Sep-15 01:19N 29°44' W 095°14'0 0.0
2017-Sep-15 00:56N 29°44' W 095°14'0 0.0
2017-Sep-15 00:27N 29°44' W 095°14'0 0.0
2017-Sep-15 00:00N 29°44' W 095°14'0 0.0
2017-Sep-14 23:20N 29°44' W 095°14'0 0.0
2017-Sep-14 22:56N 29°44' W 095°14'0 0.0
2017-Sep-14 22:14N 29°44' W 095°14'0 0.0
2017-Sep-14 22:00N 29°44' W 095°14'0 0.0
2017-Sep-14 21:15N 29°44' W 095°14'0 0.0
2017-Sep-14 20:51N 29°44' W 095°14'0 0.0
2017-Sep-14 16:13N 29°44' W 095°14'0 0.0
2017-Sep-14 13:03N 29°44' W 095°14'  

Dump ship's entire track history